createdAt,value
2019-02-22T00:01:24.809Z,16.77
2019-02-22T00:06:28.165Z,20.90
2019-02-22T00:11:31.188Z,16.52
2019-02-22T00:16:34.138Z,13.55
2019-02-22T00:21:37.456Z,14.13
2019-02-22T00:26:40.012Z,14.63
2019-02-22T00:31:43.488Z,15.00
2019-02-22T00:36:46.728Z,13.55
2019-02-22T00:41:49.720Z,13.38
2019-02-22T00:46:52.660Z,13.95
2019-02-22T00:51:55.792Z,15.15
2019-02-22T00:56:58.966Z,15.72
2019-02-22T01:02:01.650Z,13.15
2019-02-22T01:07:05.425Z,12.47
2019-02-22T01:12:08.316Z,15.32
2019-02-22T01:17:11.379Z,13.40
2019-02-22T01:22:14.683Z,14.47
2019-02-22T01:27:17.575Z,10.65
2019-02-22T01:32:20.857Z,8.50
2019-02-22T01:37:24.081Z,6.72
2019-02-22T01:42:27.562Z,6.47
2019-02-22T01:47:30.541Z,6.60
2019-02-22T01:52:33.925Z,8.50
2019-02-22T01:57:36.905Z,10.10
2019-02-22T02:02:39.724Z,7.85
2019-02-22T02:07:43.020Z,6.92
2019-02-22T02:12:46.262Z,6.83
2019-02-22T02:17:49.676Z,6.05
2019-02-22T02:22:52.554Z,6.83
2019-02-22T02:27:55.539Z,7.65
2019-02-22T02:32:58.874Z,5.97
2019-02-22T02:38:02.840Z,8.03
2019-02-22T02:43:05.987Z,9.23
2019-02-22T02:48:09.301Z,9.48
2019-02-22T02:53:12.248Z,9.13
2019-02-22T02:58:15.305Z,9.45
2019-02-22T03:03:18.455Z,8.48
2019-02-22T03:08:22.962Z,7.80
2019-02-22T03:13:25.852Z,6.47
2019-02-22T03:18:29.317Z,6.30
2019-02-22T03:23:32.774Z,5.95
2019-02-22T03:28:35.936Z,4.60
2019-02-22T03:33:38.838Z,6.05
2019-02-22T03:38:41.836Z,6.40
2019-02-22T03:43:44.787Z,6.70
2019-02-22T03:48:47.987Z,6.28
2019-02-22T03:53:57.251Z,5.58
2019-02-22T03:58:59.280Z,5.00
2019-02-22T04:04:02.140Z,5.55
2019-02-22T04:09:09.434Z,4.65
2019-02-22T04:19:15.085Z,4.10
2019-02-22T04:24:18.202Z,4.22
2019-02-22T04:29:21.104Z,3.77
2019-02-22T04:34:24.293Z,3.72
2019-02-22T04:39:27.218Z,3.95
2019-02-22T04:44:30.455Z,4.87
2019-02-22T04:49:33.319Z,5.00
2019-02-22T04:54:36.184Z,4.95
2019-02-22T04:59:39.286Z,5.45
2019-02-22T05:04:42.181Z,5.58
2019-02-22T05:09:45.696Z,5.58
2019-02-22T05:14:49.142Z,4.45
2019-02-22T05:19:52.212Z,5.78
2019-02-22T05:24:55.125Z,4.92
2019-02-22T05:29:59.230Z,5.20
2019-02-22T05:35:02.173Z,4.08
2019-02-22T05:40:05.189Z,3.90
2019-02-22T05:45:08.102Z,4.17
2019-02-22T05:50:11.096Z,3.85
2019-02-22T05:55:13.967Z,4.58
2019-02-22T06:00:17.936Z,3.55
2019-02-22T06:05:22.552Z,3.92
2019-02-22T06:10:25.459Z,3.77
2019-02-22T06:15:28.280Z,3.58
2019-02-22T06:20:31.616Z,2.90
2019-02-22T06:25:34.840Z,3.50
2019-02-22T06:30:38.728Z,3.27
2019-02-22T06:35:41.552Z,2.15
2019-02-22T06:40:47.886Z,2.67
2019-02-22T06:45:49.657Z,2.02
2019-02-22T06:50:52.574Z,3.75
2019-02-22T06:55:57.760Z,2.60
2019-02-22T07:01:00.602Z,2.80
2019-02-22T07:06:05.668Z,3.50
2019-02-22T07:11:13.869Z,3.02
2019-02-22T07:16:16.769Z,2.60
2019-02-22T07:21:19.907Z,2.45
2019-02-22T07:26:23.235Z,2.58
2019-02-22T07:31:26.083Z,3.05
2019-02-22T07:36:29.888Z,3.15
2019-02-22T07:41:32.876Z,2.80
2019-02-22T07:46:35.780Z,2.98
2019-02-22T07:51:38.676Z,2.67
2019-02-22T07:56:41.855Z,2.77
2019-02-22T08:01:47.922Z,3.15
2019-02-22T08:06:49.912Z,2.90
2019-02-22T08:11:52.974Z,2.35
2019-02-22T08:16:56.264Z,2.50
2019-02-22T08:22:00.255Z,2.75
2019-02-22T08:27:03.636Z,2.55
2019-02-22T08:32:07.107Z,2.92
2019-02-22T08:37:10.935Z,2.35
2019-02-22T08:42:14.507Z,3.10
2019-02-22T08:47:17.377Z,2.83
2019-02-22T08:52:20.393Z,3.00
2019-02-22T08:57:23.067Z,2.90
2019-02-22T09:02:26.343Z,2.70
2019-02-22T09:07:29.637Z,2.83
2019-02-22T09:12:32.501Z,2.33
2019-02-22T09:17:35.573Z,2.72
2019-02-22T09:22:39.524Z,3.47
2019-02-22T09:27:42.732Z,3.50
2019-02-22T09:32:45.619Z,2.42
2019-02-22T09:37:48.664Z,2.70
2019-02-22T09:42:52.152Z,1.98
2019-02-22T09:47:55.254Z,2.72
2019-02-22T09:52:58.346Z,2.70
2019-02-22T09:58:03.696Z,3.25
2019-02-22T10:03:06.821Z,3.00
2019-02-22T10:08:09.680Z,3.30
2019-02-22T10:13:13.273Z,3.08
2019-02-22T10:18:16.380Z,2.47
2019-02-22T10:23:19.232Z,2.77
2019-02-22T10:28:22.013Z,3.52
2019-02-22T10:33:35.958Z,3.22
2019-02-22T10:38:35.530Z,2.67
2019-02-22T10:43:40.192Z,2.85
2019-02-22T10:48:42.951Z,2.92
2019-02-22T10:53:45.627Z,3.30
2019-02-22T10:58:48.540Z,1.77
2019-02-22T11:03:51.732Z,1.60
2019-02-22T11:08:54.532Z,2.98
2019-02-22T11:13:57.217Z,2.98
2019-02-22T11:19:00.077Z,2.30
2019-02-22T11:24:02.931Z,2.08
2019-02-22T11:29:05.618Z,1.50
2019-02-22T11:34:08.738Z,2.10
2019-02-22T11:39:11.899Z,2.85
2019-02-22T11:44:14.633Z,2.60
2019-02-22T11:49:18.264Z,2.40
2019-02-22T11:54:21.377Z,2.45
2019-02-22T11:59:24.467Z,3.20
2019-02-22T12:04:27.334Z,3.00
2019-02-22T12:09:30.179Z,2.77
2019-02-22T12:14:33.079Z,2.05
2019-02-22T12:19:35.988Z,2.35
2019-02-22T12:24:39.185Z,3.17
2019-02-22T12:29:42.154Z,2.10
2019-02-22T12:34:44.883Z,2.05
2019-02-22T12:39:48.692Z,2.98
2019-02-22T12:45:02.293Z,1.95
2019-02-22T12:49:56.329Z,2.60
2019-02-22T12:54:59.708Z,2.12
2019-02-22T13:00:02.944Z,2.20
2019-02-22T13:05:06.493Z,2.10
2019-02-22T13:10:09.471Z,1.92
2019-02-22T13:15:14.482Z,2.12
2019-02-22T13:20:17.201Z,2.35
2019-02-22T13:25:20.361Z,2.62
2019-02-22T13:30:23.888Z,2.98
2019-02-22T13:35:26.642Z,2.17
2019-02-22T13:40:29.417Z,1.95
2019-02-22T13:45:32.248Z,4.05
2019-02-22T13:50:35.544Z,2.02
2019-02-22T13:55:38.236Z,2.12
2019-02-22T14:00:41.090Z,2.35
2019-02-22T14:05:44.451Z,4.12
2019-02-22T14:10:47.099Z,3.17
2019-02-22T14:15:50.606Z,3.27
2019-02-22T14:20:53.684Z,3.58
2019-02-22T14:25:57.165Z,5.15
2019-02-22T14:31:00.161Z,4.17
2019-02-22T14:36:03.047Z,2.77
2019-02-22T14:41:06.099Z,3.45
2019-02-22T14:46:09.061Z,8.18
2019-02-22T14:51:12.051Z,5.12
2019-02-22T14:56:15.824Z,3.60
2019-02-22T15:01:19.569Z,4.62
2019-02-22T15:06:22.788Z,2.83
2019-02-22T15:11:26.783Z,3.00
2019-02-22T15:16:51.907Z,3.25
2019-02-22T15:21:55.174Z,3.17
2019-02-22T15:26:59.228Z,5.75
2019-02-22T15:32:03.388Z,7.37
2019-02-22T15:37:07.328Z,3.98
2019-02-22T15:42:12.742Z,4.92
2019-02-22T15:47:15.616Z,4.40
2019-02-22T15:52:18.796Z,3.98
2019-02-22T15:57:21.767Z,3.05
2019-02-22T16:02:24.865Z,4.65
2019-02-22T16:07:27.763Z,6.22
2019-02-22T16:12:30.941Z,5.33
2019-02-22T16:17:34.585Z,4.60
2019-02-22T16:22:37.501Z,6.80
2019-02-22T16:27:41.784Z,8.80
2019-02-22T16:32:46.515Z,10.40
2019-02-22T16:37:49.496Z,7.05
2019-02-22T16:42:52.973Z,10.78
2019-02-22T16:47:55.810Z,6.30
2019-02-22T16:52:58.979Z,6.90
2019-02-22T16:58:02.051Z,8.85
2019-02-22T17:03:05.641Z,6.97
2019-02-22T17:08:08.499Z,6.97
2019-02-22T17:13:11.684Z,8.65
2019-02-22T17:18:15.116Z,6.45
2019-02-22T17:23:18.187Z,11.73
2019-02-22T17:28:21.027Z,10.50
2019-02-22T17:33:24.645Z,11.80
2019-02-22T17:38:47.037Z,11.90
2019-02-22T17:43:49.889Z,11.68
2019-02-22T17:48:53.165Z,8.53
2019-02-22T17:53:56.372Z,11.40
2019-02-22T17:58:59.144Z,17.50
2019-02-22T18:04:02.352Z,16.77
2019-02-22T18:09:05.580Z,13.40
2019-02-22T18:14:09.218Z,13.20
2019-02-22T18:19:11.864Z,8.65
2019-02-22T18:24:14.728Z,10.48
2019-02-22T18:29:18.476Z,10.23
2019-02-22T18:34:21.541Z,17.10
2019-02-22T18:39:25.243Z,7.70
2019-02-22T18:44:28.201Z,10.28
2019-02-22T18:49:31.951Z,10.50
2019-02-22T18:54:34.839Z,10.32
2019-02-22T19:05:30.290Z,9.03
2019-02-22T19:10:33.376Z,7.95
2019-02-22T19:15:36.701Z,10.15
2019-02-22T19:20:40.131Z,17.35
2019-02-22T19:25:43.832Z,15.03
2019-02-22T19:30:46.682Z,14.38
2019-02-22T19:35:49.531Z,15.18
2019-02-22T19:40:52.544Z,17.23
2019-02-22T19:46:02.564Z,19.55
2019-02-22T19:51:06.846Z,17.55
2019-02-22T19:56:09.973Z,12.23
2019-02-22T20:01:13.589Z,12.58
2019-02-22T20:06:16.372Z,12.45
2019-02-22T20:11:19.280Z,11.93
2019-02-22T20:16:22.414Z,12.23
2019-02-22T20:21:47.813Z,13.88
2019-02-22T20:26:55.420Z,14.75
2019-02-22T20:31:58.295Z,16.62
2019-02-22T20:37:01.191Z,18.98
2019-02-22T20:42:04.129Z,19.65
2019-02-22T20:47:07.301Z,17.27
2019-02-22T20:52:10.193Z,19.85
2019-02-22T20:57:13.048Z,18.20
2019-02-22T21:02:16.340Z,20.48
2019-02-22T21:07:19.269Z,21.90
2019-02-22T21:12:22.190Z,20.55
2019-02-22T21:17:25.379Z,20.77
2019-02-22T21:22:29.106Z,22.77
2019-02-22T21:27:32.171Z,20.27
2019-02-22T21:32:35.264Z,18.73
2019-02-22T21:37:39.410Z,19.87
2019-02-22T21:42:42.653Z,21.35
2019-02-22T21:47:54.115Z,22.93
2019-02-22T21:52:50.922Z,24.40
2019-02-22T21:57:53.559Z,21.30
2019-02-22T22:02:56.821Z,23.98
2019-02-22T22:07:59.802Z,21.00
2019-02-22T22:13:02.691Z,21.37
2019-02-22T22:18:05.353Z,19.42
2019-02-22T22:23:08.167Z,21.10
2019-02-22T22:28:11.345Z,18.75
2019-02-22T22:33:16.066Z,19.67
2019-02-22T22:38:18.832Z,16.57
2019-02-22T22:43:22.206Z,19.17
2019-02-22T22:48:25.097Z,16.30
2019-02-22T22:53:28.517Z,16.60
2019-02-22T22:58:31.398Z,17.15
2019-02-22T23:03:35.010Z,19.27
2019-02-22T23:08:37.846Z,19.85
2019-02-22T23:13:41.071Z,20.17
2019-02-22T23:18:43.876Z,23.45
2019-02-22T23:23:47.238Z,26.42
2019-02-22T23:28:50.103Z,23.45
2019-02-22T23:33:54.523Z,21.27
2019-02-22T23:38:58.673Z,18.05
2019-02-22T23:44:01.333Z,16.82
2019-02-22T23:49:12.824Z,18.75
2019-02-22T23:54:09.183Z,17.23
2019-02-22T23:59:12.047Z,17.52
